LIPY Airport Information

Runway Information
Runway 04 Length 9718 ft width 148 ft
Elevation 47 ft Threshold 641 ft Heading 45
Runway 22 Length 9718 ft Width 148 ft
Elevation 29 ft Threshold 492 ft Heading 225
Airport Frequencies
Type APP Name ROMAGNA AP Frequency 118.15 MHZ
Type APP Name ROMAGNA AP Frequency 37.975 MHZ
Type ATIS Name ATIS Frequency 122.85 MHZ
Type TWR Name TWR Frequency 119.8 MHZ
Airport Navaids
Type VOR-DME Name Ancona Frequency 110650 KHZ
Type NDB Name Ancona Frequency 375 KHZ
Type TACAN Name Falconara Frequency 109800 KHZ
Type NDB Name Falconara Frequency 358 KHZ
Airport Weather Information & NOTAM
ADDS - METARS form results

(1304 UTC 28 September 2022)
Data provider http://aviationweather.gov/metar/data/
 
METAR text: LIPY 281250Z AUTO 23010KT 9999 FEW170/// 23/12 Q1001
Conditions at: LIPY (FALCONARA (IT-AF, IT) observed 1250 UTC 28 September 2022
Temperature: 23.0°C (73°F)
Dewpoint: 12.0°C (54°F) [RH = 50%]
Pressure (altimeter): 29.56 inches Hg (1001.0 mb)
Winds: from the SW (230 degrees) at 12 MPH (10 knots; 5.1 m/s)
Visibility: 6 or more miles (10+ km)
Ceiling: at least 12,000 feet AGL
Clouds: few clouds at 17000 feet AGL
Weather: no significant weather observed at this time

METAR text: LIPY 281220Z AUTO 22010KT 190V250 9999 BKN200/// 24/12 Q1001
Conditions at: LIPY (FALCONARA (IT-AF, IT) observed 1220 UTC 28 September 2022
Temperature: 24.0°C (75°F)
Dewpoint: 12.0°C (54°F) [RH = 47%]
Pressure (altimeter): 29.56 inches Hg (1001.0 mb)
Winds: from the SW (220 degrees) at 12 MPH (10 knots; 5.1 m/s)
Visibility: 6 or more miles (10+ km)
Ceiling: 20000 feet AGL
Clouds: broken clouds at 20000 feet AGL
Weather: no significant weather observed at this time

Forecast for: LIPY (FALCONARA (IT-AF, IT)
Text: TAF LIPY 281100Z 2812/2912 21011KT 9999 SCT050
Forecast period: 1200 UTC 28 September 2022 to 1200 UTC 29 September 2022
Forecast type: FROM: standard forecast or significant change
Winds: from the SSW (210 degrees) at 13 MPH (11 knots; 5.7 m/s)
Visibility: 6 or more miles (10+ km)
Ceiling: at least 12,000 feet AGL
Clouds: scattered clouds at 5000 feet AGL
Weather: no significant weather forecast for this period
Text: TEMPO 2813/2819 RA
Forecast period: 1300 to 1900 UTC 28 September 2022
Forecast type: TEMPORARY: The following changes expected for less than half the time period
Visibility: missing
Ceiling: unknown
Clouds: missing
Weather: RA  (moderate rain)